Time;durP1;ratioP1;P1;durP2;ratioP2;P2;SDS_P1;SDS_P2;PMS_P1;PMS_P2;Temp;Humidity;BMP_temperature;BMP_pressure;BME280_temperature;BME280_humidity;BME280_pressure;Samples;Min_cycle;Max_cycle;Signal;HPM_P1;HPM_P2
2021/07/23 00:01:51;;;;;;;10.43;9.47;;;30.30;71.80;;;;;;5106783;28;20040;-41
2021/07/23 00:04:17;;;;;;;11.73;10.52;;;30.30;71.70;;;;;;5106802;28;20288;-42
2021/07/23 00:06:43;;;;;;;10.90;9.90;;;30.30;71.80;;;;;;5107023;28;20028;-47
2021/07/23 00:09:09;;;;;;;11.23;10.15;;;30.30;71.80;;;;;;5106179;28;20032;-41
2021/07/23 00:11:35;;;;;;;11.90;10.80;;;30.30;71.80;;;;;;5106683;28;20075;-42
2021/07/23 00:14:01;;;;;;;11.07;10.07;;;30.20;71.70;;;;;;5106563;28;20261;-41
2021/07/23 00:16:27;;;;;;;11.45;10.38;;;30.30;71.90;;;;;;5106267;28;20040;-41
2021/07/23 00:18:54;;;;;;;11.02;10.02;;;30.20;71.80;;;;;;5106339;28;20035;-43
2021/07/23 00:21:20;;;;;;;11.90;10.80;;;30.20;71.70;;;;;;5106764;28;20016;-42
2021/07/23 00:23:46;;;;;;;12.00;10.90;;;30.20;71.80;;;;;;5106247;28;20029;-42
2021/07/23 00:26:13;;;;;;;10.75;9.75;;;30.20;71.80;;;;;;5106682;28;20020;-42
2021/07/23 00:28:39;;;;;;;;;;;30.20;71.80;;;;;;5106428;28;20036;-42
2021/07/23 00:31:05;;;;;;;11.57;10.48;;;30.20;71.80;;;;;;5106329;28;19912;-43
2021/07/23 00:33:32;;;;;;;12.23;11.05;;;30.20;71.80;;;;;;5106376;28;20039;-43
2021/07/23 00:35:58;;;;;;;11.82;10.73;;;30.10;71.70;;;;;;5106182;28;20035;-40
2021/07/23 00:38:24;;;;;;;11.90;10.80;;;30.10;71.90;;;;;;5106243;28;20027;-41
2021/07/23 00:40:50;;;;;;;11.95;10.85;;;30.20;71.90;;;;;;5106102;28;20030;-41
2021/07/23 00:43:16;;;;;;;11.70;10.60;;;30.10;71.90;;;;;;5106062;28;20024;-43
2021/07/23 00:45:43;;;;;;;10.93;9.93;;;30.10;71.80;;;;;;5105753;28;20534;-42
2021/07/23 00:48:09;;;;;;;11.68;10.57;;;30.10;71.80;;;;;;5106045;28;20273;-41
2021/07/23 00:50:35;;;;;;;11.43;10.32;;;30.10;71.90;;;;;;5087430;28;20039;-43
2021/07/23 00:53:02;;;;;;;12.20;10.97;;;30.10;71.90;;;;;;5105992;28;20043;-41
2021/07/23 00:55:28;;;;;;;11.73;10.63;;;30.10;71.90;;;;;;5070898;28;20032;-42
2021/07/23 00:57:54;;;;;;;12.02;10.93;;;30.10;71.90;;;;;;5105248;28;20079;-43
2021/07/23 01:00:21;;;;;;;11.25;10.15;;;30.00;71.90;;;;;;5077797;28;20112;-41
2021/07/23 01:02:48;;;;;;;13.00;11.70;;;30.00;71.90;;;;;;5067552;28;20033;-42
2021/07/23 01:05:14;;;;;;;11.48;10.38;;;30.00;71.90;;;;;;5085414;28;20367;-43
2021/07/23 01:07:40;;;;;;;12.95;11.68;;;30.00;71.90;;;;;;5085375;28;20028;-42
2021/07/23 01:10:07;;;;;;;12.37;11.17;;;30.00;71.80;;;;;;5104964;28;20035;-42
2021/07/23 01:12:35;;;;;;;13.40;12.00;;;30.00;71.90;;;;;;5105526;28;20289;-41
2021/07/23 01:15:01;;;;;;;15.45;12.57;;;30.00;71.90;;;;;;5087098;28;20077;-42
2021/07/23 01:17:27;;;;;;;12.95;11.65;;;30.00;71.90;;;;;;5105649;28;20030;-39
2021/07/23 01:20:16;;;;;;;13.23;11.93;;;29.90;71.90;;;;;;5086934;28;20054;-42
2021/07/23 01:22:43;;;;;;;13.43;12.13;;;29.90;71.90;;;;;;5104635;28;20035;-43
2021/07/23 01:25:09;;;;;;;13.50;12.20;;;29.90;71.90;;;;;;5100366;28;20033;-42
2021/07/23 01:27:42;;;;;;;12.48;11.27;;;29.90;71.90;;;;;;5084994;28;20029;-42
2021/07/23 01:30:09;;;;;;;12.40;11.20;;;29.90;71.90;;;;;;5106961;28;20039;-41
2021/07/23 01:32:35;;;;;;;;;;;29.90;72.00;;;;;;5105316;28;20050;-42
2021/07/23 01:35:02;;;;;;;12.48;11.27;;;29.90;71.90;;;;;;5086555;28;19908;-41
2021/07/23 01:37:28;;;;;;;;;;;29.80;71.80;;;;;;5105697;28;20106;-44
2021/07/23 01:39:54;;;;;;;13.07;11.88;;;29.80;71.90;;;;;;5086704;28;20506;-42
2021/07/23 01:42:20;;;;;;;12.93;11.65;;;29.80;71.90;;;;;;5086699;28;20020;-42
2021/07/23 01:44:46;;;;;;;13.87;12.43;;;29.80;71.90;;;;;;5104747;28;20053;-43
2021/07/23 01:47:13;;;;;;;13.93;12.57;;;29.80;72.00;;;;;;5105097;28;20711;-43
2021/07/23 01:49:39;;;;;;;15.30;13.80;;;29.80;72.00;;;;;;5104912;28;20084;-43
2021/07/23 01:52:05;;;;;;;14.77;13.27;;;29.70;72.00;;;;;;5104090;28;20444;-42
2021/07/23 01:54:31;;;;;;;14.90;13.40;;;29.70;72.00;;;;;;5104370;28;20264;-41
2021/07/23 01:56:57;;;;;;;16.77;14.23;;;29.70;72.00;;;;;;5104572;28;20038;-42
2021/07/23 01:59:23;;;;;;;15.60;13.47;;;29.70;72.00;;;;;;5086342;28;20362;-42
2021/07/23 02:01:50;;;;;;;15.18;13.70;;;29.70;72.00;;;;;;5086133;28;20091;-43
2021/07/23 02:04:16;;;;;;;17.03;15.33;;;29.70;72.00;;;;;;5104563;28;20032;-42
2021/07/23 02:06:42;;;;;;;14.57;13.18;;;29.70;72.00;;;;;;5104531;28;20085;-41
2021/07/23 02:09:08;;;;;;;16.27;14.67;;;29.70;71.90;;;;;;5103609;28;20048;-42
2021/07/23 02:11:34;;;;;;;16.87;15.17;;;29.70;72.00;;;;;;5103997;28;20292;-41
2021/07/23 02:14:03;;;;;;;15.47;13.87;;;29.60;71.90;;;;;;5103868;28;20024;-43
2021/07/23 02:16:29;;;;;;;15.98;14.30;;;29.60;71.90;;;;;;5104282;28;20265;-41
2021/07/23 02:18:55;;;;;;;17.13;15.52;;;29.60;71.90;;;;;;5085999;28;20044;-42
2021/07/23 02:21:21;;;;;;;19.17;16.23;;;29.60;71.90;;;;;;5104097;28;20032;-41
2021/07/23 02:23:47;;;;;;;17.40;15.67;;;29.60;71.90;;;;;;5094100;28;20066;-43
2021/07/23 02:26:20;;;;;;;17.23;15.47;;;29.60;71.90;;;;;;5083835;28;20278;-43
2021/07/23 02:28:46;;;;;;;17.40;15.65;;;29.60;71.90;;;;;;5083782;28;20104;-42
2021/07/23 02:31:12;;;;;;;16.50;14.88;;;29.60;71.90;;;;;;5100033;28;20113;-42
2021/07/23 02:33:39;;;;;;;18.13;16.33;;;29.50;71.80;;;;;;5085631;28;20036;-42
2021/07/23 02:36:05;;;;;;;16.75;15.13;;;29.50;71.80;;;;;;5104021;28;20031;-43
2021/07/23 02:38:31;;;;;;;17.58;15.88;;;29.50;71.90;;;;;;5103692;28;20039;-41
2021/07/23 02:40:58;;;;;;;18.20;16.40;;;29.50;71.90;;;;;;5103608;28;20028;-42
2021/07/23 02:43:24;;;;;;;18.00;16.08;;;29.50;71.90;;;;;;5103686;28;20057;-41
2021/07/23 02:45:50;;;;;;;19.13;17.25;;;29.50;71.70;;;;;;5103846;28;20028;-42
2021/07/23 02:48:16;;;;;;;18.67;16.77;;;29.50;71.80;;;;;;5103726;28;20031;-41
2021/07/23 02:50:42;;;;;;;19.47;17.47;;;29.40;71.70;;;;;;5103501;28;20269;-42
2021/07/23 02:53:08;;;;;;;17.90;16.20;;;29.50;71.80;;;;;;5103570;28;20275;-41
2021/07/23 02:55:35;;;;;;;18.43;16.53;;;29.40;71.70;;;;;;5103372;28;20664;-42
2021/07/23 02:58:01;;;;;;;21.17;18.17;;;29.40;71.80;;;;;;5103573;28;20108;-39
2021/07/23 03:00:27;;;;;;;18.73;16.75;;;29.40;71.70;;;;;;5093057;28;20508;-41
2021/07/23 03:02:53;;;;;;;18.55;16.58;;;29.40;71.70;;;;;;5082878;28;20038;-43
2021/07/23 03:05:19;;;;;;;18.83;16.90;;;29.40;71.50;;;;;;5083334;28;20021;-41
2021/07/23 03:07:45;;;;;;;18.33;16.52;;;29.40;71.70;;;;;;5082994;28;20269;-41
2021/07/23 03:10:12;;;;;;;17.33;15.53;;;29.40;71.60;;;;;;5082991;28;20712;-41
2021/07/23 03:12:38;;;;;;;18.50;16.58;;;29.30;71.50;;;;;;5101842;28;20308;-42
2021/07/23 03:15:05;;;;;;;18.93;16.93;;;29.30;71.50;;;;;;5103235;28;20059;-43
2021/07/23 03:17:31;;;;;;;18.45;16.65;;;29.30;71.40;;;;;;5103500;28;20276;-41
2021/07/23 03:19:57;;;;;;;19.43;17.43;;;29.30;71.30;;;;;;5103091;28;20028;-42
2021/07/23 03:22:23;;;;;;;19.53;17.33;;;29.30;71.30;;;;;;5102865;28;20711;-42
2021/07/23 03:24:49;;;;;;;18.97;17.00;;;29.20;71.30;;;;;;5084646;28;20028;-41
2021/07/23 03:27:15;;;;;;;19.57;16.50;;;29.20;71.50;;;;;;5082891;28;20778;-43
2021/07/23 03:29:41;;;;;;;17.73;15.87;;;29.20;71.20;;;;;;5100704;28;20028;-41
2021/07/23 03:32:07;;;;;;;19.55;17.55;;;29.20;71.10;;;;;;5102840;28;20059;-43
2021/07/23 03:34:34;;;;;;;17.87;16.10;;;29.20;71.20;;;;;;5103113;28;20020;-42
2021/07/23 03:37:00;;;;;;;19.35;17.45;;;29.20;71.20;;;;;;5103174;28;20028;-42
2021/07/23 03:39:26;;;;;;;18.67;16.80;;;29.20;71.10;;;;;;5102789;28;20032;-41
2021/07/23 03:41:52;;;;;;;18.83;16.97;;;29.20;71.20;;;;;;5102733;28;20150;-42
2021/07/23 03:44:18;;;;;;;19.03;17.03;;;29.10;71.10;;;;;;5102950;28;20265;-42
2021/07/23 03:46:44;;;;;;;19.77;17.77;;;29.10;71.10;;;;;;5102966;28;20031;-41
2021/07/23 03:49:10;;;;;;;19.43;17.43;;;29.10;71.10;;;;;;5084707;28;20032;-42
2021/07/23 03:51:36;;;;;;;18.88;16.95;;;29.10;71.10;;;;;;5102683;28;20093;-42
2021/07/23 03:54:03;;;;;;;18.80;16.93;;;29.10;71.20;;;;;;5102690;28;20052;-42
2021/07/23 03:56:29;;;;;;;19.60;17.50;;;29.10;71.20;;;;;;5102798;28;20028;-42
2021/07/23 03:58:56;;;;;;;17.42;15.77;;;29.10;71.20;;;;;;5102440;28;20052;-41
2021/07/23 04:01:22;;;;;;;19.73;17.70;;;29.10;71.90;;;;;;5102781;28;20028;-41
2021/07/23 04:03:48;;;;;;;18.70;16.90;;;29.10;71.20;;;;;;5102772;28;20292;-42
2021/07/23 04:06:14;;;;;;;18.30;16.50;;;29.00;71.20;;;;;;5102712;28;20253;-43
2021/07/23 04:08:41;;;;;;;19.23;17.33;;;29.00;71.20;;;;;;5102771;28;20084;-42
2021/07/23 04:11:14;;;;;;;20.02;18.02;;;29.00;71.20;;;;;;5102440;28;20288;-41
2021/07/23 04:13:41;;;;;;;19.27;17.38;;;29.00;71.10;;;;;;5102150;28;20036;-42
2021/07/23 04:16:07;;;;;;;19.13;17.23;;;29.00;71.10;;;;;;5102745;28;20021;-42
2021/07/23 04:18:33;;;;;;;20.17;18.17;;;28.90;71.10;;;;;;5102676;28;20032;-43
2021/07/23 04:21:03;;;;;;;19.90;17.83;;;28.90;71.20;;;;;;5102694;28;20275;-41
2021/07/23 04:23:31;;;;;;;19.70;17.73;;;28.90;70.90;;;;;;5102287;28;20035;-42
2021/07/23 04:25:57;;;;;;;19.50;17.52;;;28.90;71.10;;;;;;5102266;28;20101;-42
2021/07/23 04:28:23;;;;;;;19.48;17.48;;;28.90;71.10;;;;;;5102440;28;20084;-41
2021/07/23 04:30:50;;;;;;;23.20;18.45;;;28.90;71.00;;;;;;5084309;28;20034;-43
2021/07/23 04:33:16;;;;;;;20.63;18.63;;;28.80;71.00;;;;;;5104432;28;20028;-42
2021/07/23 04:35:42;;;;;;;20.17;18.17;;;28.90;71.10;;;;;;5088012;28;20073;-41
2021/07/23 04:38:08;;;;;;;20.50;18.50;;;28.80;71.10;;;;;;5106120;28;20284;-41
2021/07/23 04:40:36;;;;;;;19.67;17.67;;;28.80;71.20;;;;;;5106101;28;20028;-41
2021/07/23 04:43:02;;;;;;;20.48;17.80;;;28.80;71.30;;;;;;5105742;28;20063;-41
2021/07/23 04:45:28;;;;;;;19.20;17.30;;;28.80;71.20;;;;;;5105768;28;20039;-41
2021/07/23 04:47:54;;;;;;;21.27;19.07;;;28.80;71.10;;;;;;5105992;28;20024;-42
2021/07/23 04:50:20;;;;;;;20.77;18.63;;;28.80;71.10;;;;;;5105805;28;20024;-42
2021/07/23 04:52:46;;;;;;;20.37;18.37;;;28.80;71.20;;;;;;5105661;28;20038;-42
2021/07/23 04:55:13;;;;;;;19.87;17.83;;;28.70;71.10;;;;;;5105607;28;20035;-41
2021/07/23 04:57:47;;;;;;;19.67;17.67;;;28.70;71.10;;;;;;5105758;28;20626;-42
2021/07/23 05:00:13;;;;;;;20.27;18.15;;;28.70;71.00;;;;;;5105471;28;20063;-43
2021/07/23 05:02:42;;;;;;;20.90;18.80;;;28.70;71.10;;;;;;5105760;28;20035;-41
2021/07/23 05:05:10;;;;;;;20.70;18.60;;;28.70;71.10;;;;;;5105358;28;20047;-41
2021/07/23 05:07:36;;;;;;;20.23;17.95;;;28.70;71.00;;;;;;5105589;28;20079;-42
2021/07/23 05:10:03;;;;;;;19.47;17.57;;;28.60;71.00;;;;;;5105442;28;20133;-43
2021/07/23 05:12:29;;;;;;;20.35;18.35;;;28.60;71.00;;;;;;5105414;28;20304;-41
2021/07/23 05:14:55;;;;;;;21.17;18.90;;;28.60;70.90;;;;;;5105298;28;20500;-41
2021/07/23 05:17:23;;;;;;;20.67;18.57;;;28.60;71.00;;;;;;5105233;28;20031;-41
2021/07/23 05:19:50;;;;;;;20.95;18.85;;;28.60;71.00;;;;;;5087185;28;20396;-41
2021/07/23 05:22:16;;;;;;;20.73;18.53;;;28.60;71.00;;;;;;5105168;28;20063;-43
2021/07/23 05:24:42;;;;;;;19.95;17.95;;;28.60;71.10;;;;;;5105081;28;20265;-41
2021/07/23 05:27:08;;;;;;;21.67;19.20;;;28.50;70.90;;;;;;5104578;28;20031;-42
2021/07/23 05:29:34;;;;;;;20.93;18.63;;;28.50;71.00;;;;;;5087025;28;20020;-41
2021/07/23 05:32:00;;;;;;;19.80;17.80;;;28.50;71.70;;;;;;5105006;28;20036;-42
2021/07/23 05:34:26;;;;;;;21.13;19.07;;;28.50;71.00;;;;;;5084815;28;20031;-43
2021/07/23 05:36:52;;;;;;;20.67;18.57;;;28.50;71.00;;;;;;5084546;28;20021;-42
2021/07/23 05:39:18;;;;;;;20.07;18.17;;;28.50;71.00;;;;;;5084558;28;20055;-42
2021/07/23 05:41:45;;;;;;;21.17;19.07;;;28.40;71.10;;;;;;5084682;28;20587;-41
2021/07/23 05:44:11;;;;;;;20.23;18.13;;;28.40;71.00;;;;;;5084330;28;20078;-42
2021/07/23 05:46:37;;;;;;;20.90;18.80;;;28.40;71.00;;;;;;5084317;28;20489;-41
2021/07/23 05:49:04;;;;;;;21.07;18.90;;;28.40;71.10;;;;;;5084620;28;20025;-42
2021/07/23 05:51:31;;;;;;;21.02;18.92;;;28.40;71.30;;;;;;5084463;28;20516;-42
2021/07/23 05:53:57;;;;;;;20.87;18.77;;;28.40;71.10;;;;;;5077318;28;20035;-41
2021/07/23 05:56:23;;;;;;;21.63;18.97;;;28.40;71.20;;;;;;5104327;28;20096;-42
2021/07/23 05:58:49;;;;;;;21.93;19.73;;;28.30;71.10;;;;;;5104429;28;20051;-43
2021/07/23 06:01:15;;;;;;;20.77;18.57;;;28.30;71.10;;;;;;5099704;28;20105;-42
2021/07/23 06:03:41;;;;;;;20.87;18.77;;;28.30;71.00;;;;;;5104518;28;20293;-42
2021/07/23 06:06:07;;;;;;;21.52;19.25;;;28.30;71.00;;;;;;5104204;28;20032;-41
2021/07/23 06:08:33;;;;;;;21.90;19.13;;;28.30;71.00;;;;;;5104399;28;20028;-41
2021/07/23 06:11:06;;;;;;;21.10;19.00;;;28.30;71.00;;;;;;5104310;28;20127;-43
2021/07/23 06:13:37;;;;;;;21.63;19.42;;;28.20;70.90;;;;;;5104149;28;20036;-42
2021/07/23 06:16:05;;;;;;;21.52;19.35;;;28.20;70.90;;;;;;5101894;28;20115;-42
2021/07/23 06:18:31;;;;;;;20.27;18.30;;;28.20;71.00;;;;;;5104275;28;20031;-42
2021/07/23 06:20:57;;;;;;;22.13;19.85;;;28.20;70.90;;;;;;5104011;28;20024;-41
2021/07/23 06:23:23;;;;;;;21.47;19.27;;;28.20;71.00;;;;;;5104154;28;20036;-42
2021/07/23 06:25:49;;;;;;;21.83;19.73;;;28.20;71.00;;;;;;5104027;28;20047;-42
2021/07/23 06:28:15;;;;;;;21.63;18.97;;;28.20;71.00;;;;;;5103692;28;20269;-43
2021/07/23 06:30:42;;;;;;;21.20;19.00;;;28.10;70.90;;;;;;5103829;28;20028;-42
2021/07/23 06:33:08;;;;;;;23.13;20.63;;;28.10;70.90;;;;;;5103832;28;20123;-42
2021/07/23 06:35:34;;;;;;;21.17;19.07;;;28.10;71.00;;;;;;5103899;28;20020;-43
2021/07/23 06:38:00;;;;;;;21.57;19.43;;;28.10;71.00;;;;;;5103507;28;20265;-43
2021/07/23 06:40:26;;;;;;;20.90;18.70;;;28.10;71.00;;;;;;5103810;28;20028;-42
2021/07/23 06:42:52;;;;;;;20.93;18.83;;;28.10;71.00;;;;;;5103659;28;20050;-42
2021/07/23 06:45:19;;;;;;;21.00;18.90;;;28.10;71.00;;;;;;5085425;28;20328;-42
2021/07/23 06:47:45;;;;;;;21.38;19.27;;;28.10;71.00;;;;;;5103396;28;20100;-42
2021/07/23 06:50:12;;;;;;;21.17;19.03;;;28.10;71.00;;;;;;5103592;28;20040;-41
2021/07/23 06:52:38;;;;;;;21.67;19.58;;;28.00;71.10;;;;;;5103492;28;20293;-42
2021/07/23 06:55:04;;;;;;;21.30;19.10;;;28.00;70.90;;;;;;5082604;28;20032;-43
2021/07/23 06:57:34;;;;;;;20.92;18.83;;;28.00;71.00;;;;;;5082993;28;20048;-42
2021/07/23 07:00:00;;;;;;;21.20;19.10;;;28.00;71.10;;;;;;5089543;28;20408;-41
2021/07/23 07:02:30;;;;;;;21.08;18.92;;;28.00;71.20;;;;;;5103386;28;20115;-43
2021/07/23 07:04:58;;;;;;;21.67;19.38;;;27.90;71.10;;;;;;5103546;28;20099;-42
2021/07/23 07:07:24;;;;;;;21.13;18.95;;;27.90;71.00;;;;;;5102917;28;20028;-42
2021/07/23 07:09:51;;;;;;;22.17;19.88;;;27.90;71.00;;;;;;5103089;28;20119;-42
2021/07/23 07:12:17;;;;;;;21.60;19.40;;;27.90;71.10;;;;;;5103277;28;20127;-43
2021/07/23 07:14:43;;;;;;;21.50;19.30;;;27.90;71.10;;;;;;5103207;28;20051;-41
2021/07/23 07:17:10;;;;;;;22.13;19.93;;;27.90;71.00;;;;;;5103160;28;20028;-42
2021/07/23 07:19:36;;;;;;;21.45;19.30;;;27.90;71.10;;;;;;5103141;28;20104;-43
2021/07/23 07:22:03;;;;;;;21.77;19.53;;;27.90;71.00;;;;;;5103022;28;20035;-42
2021/07/23 07:24:29;;;;;;;;;;;27.80;71.00;;;;;;5103352;28;20035;-41
2021/07/23 07:26:55;;;;;;;21.17;18.98;;;27.80;71.00;;;;;;5102743;28;19904;-41
2021/07/23 07:29:21;;;;;;;22.27;19.97;;;27.80;71.00;;;;;;5102987;28;20028;-43
2021/07/23 07:31:48;;;;;;;24.83;20.43;;;27.80;71.10;;;;;;5102931;28;20116;-42
2021/07/23 07:34:14;;;;;;;22.57;20.10;;;27.80;71.10;;;;;;5103108;28;20063;-42
2021/07/23 07:36:40;;;;;;;20.63;18.57;;;27.80;71.10;;;;;;5103162;28;20622;-42
2021/07/23 07:39:06;;;;;;;21.38;19.27;;;27.80;71.10;;;;;;5102794;28;20330;-45
2021/07/23 07:41:32;;;;;;;22.03;19.63;;;27.80;71.10;;;;;;5102418;28;20079;-42
2021/07/23 07:43:58;;;;;;;21.17;19.03;;;27.70;71.10;;;;;;5102774;28;20100;-41
2021/07/23 07:46:25;;;;;;;22.50;20.17;;;27.70;71.00;;;;;;5102935;28;20404;-42
2021/07/23 07:48:51;;;;;;;21.50;19.40;;;27.70;71.10;;;;;;5102787;28;20024;-43
2021/07/23 07:51:17;;;;;;;22.27;20.03;;;27.70;71.00;;;;;;5102999;28;20034;-41
2021/07/23 07:53:43;;;;;;;22.07;19.87;;;27.70;71.10;;;;;;5102827;28;20095;-41
2021/07/23 07:56:10;;;;;;;23.30;20.90;;;27.70;71.10;;;;;;5102823;28;20038;-42
2021/07/23 07:58:37;;;;;;;22.23;20.02;;;27.70;71.10;;;;;;5102317;28;20337;-43
2021/07/23 08:01:09;;;;;;;21.30;19.23;;;27.70;71.20;;;;;;5102765;28;20028;-43
2021/07/23 08:03:35;;;;;;;21.38;19.15;;;27.60;71.10;;;;;;5084390;28;20055;-42
2021/07/23 08:06:06;;;;;;;21.92;19.65;;;27.60;71.90;;;;;;5102958;28;20028;-43
2021/07/23 08:08:32;;;;;;;21.10;18.95;;;27.70;71.20;;;;;;5105220;28;20534;-42
2021/07/23 08:10:58;;;;;;;21.63;19.33;;;27.70;71.20;;;;;;5105986;28;20457;-42
2021/07/23 08:13:26;;;;;;;22.60;20.30;;;27.60;71.20;;;;;;5106551;28;20058;-42
2021/07/23 08:15:56;;;;;;;22.00;19.80;;;27.60;71.20;;;;;;5106335;28;20027;-41
2021/07/23 08:18:22;;;;;;;21.48;19.38;;;27.60;71.20;;;;;;5106472;28;20043;-43
2021/07/23 08:20:51;;;;;;;21.90;19.23;;;27.60;71.30;;;;;;5106732;28;20024;-43
2021/07/23 08:23:18;;;;;;;21.80;19.50;;;27.60;71.20;;;;;;5100803;28;20032;-42
2021/07/23 08:25:44;;;;;;;21.20;19.00;;;27.50;71.30;;;;;;5101418;28;20029;-42
2021/07/23 08:28:11;;;;;;;21.80;19.30;;;27.50;71.20;;;;;;5085708;28;20092;-42
2021/07/23 08:30:37;;;;;;;22.00;19.80;;;27.50;71.30;;;;;;5097675;28;20035;-42
2021/07/23 08:33:03;;;;;;;22.08;19.88;;;27.50;71.20;;;;;;5106369;28;20044;-43
2021/07/23 08:35:31;;;;;;;22.70;20.40;;;27.50;71.30;;;;;;5106169;28;20081;-43
2021/07/23 08:37:57;;;;;;;21.33;19.23;;;27.50;71.20;;;;;;5105731;28;20032;-42
2021/07/23 08:40:23;;;;;;;21.87;19.57;;;27.40;71.20;;;;;;5105936;28;20020;-42
2021/07/23 08:42:50;;;;;;;22.07;19.87;;;27.40;71.20;;;;;;5106173;28;20056;-43
2021/07/23 08:45:16;;;;;;;22.38;20.13;;;27.40;71.20;;;;;;5106204;28;20028;-42
2021/07/23 08:47:42;;;;;;;21.90;19.67;;;27.40;71.20;;;;;;5105896;28;20099;-43
2021/07/23 08:50:08;;;;;;;21.63;19.43;;;27.40;71.20;;;;;;5105870;28;20081;-43
2021/07/23 08:52:37;;;;;;;21.88;19.67;;;27.40;71.20;;;;;;5105923;28;20035;-42
2021/07/23 08:55:05;;;;;;;22.40;20.10;;;27.40;71.30;;;;;;5085245;28;20029;-42
2021/07/23 08:57:31;;;;;;;22.30;20.10;;;27.40;71.30;;;;;;5085535;28;20065;-42
2021/07/23 08:59:57;;;;;;;21.00;18.90;;;27.40;71.30;;;;;;5091374;28;20111;-42
2021/07/23 09:02:23;;;;;;;23.02;20.65;;;27.40;71.40;;;;;;5105617;28;20265;-43
2021/07/23 09:04:52;;;;;;;22.67;20.27;;;27.40;71.40;;;;;;5105763;28;20059;-45
2021/07/23 09:07:18;;;;;;;22.70;20.40;;;27.30;71.20;;;;;;5105379;28;20039;-43
2021/07/23 09:10:04;;;;;;;21.43;19.30;;;27.30;71.30;;;;;;5105186;28;20032;-42
2021/07/23 09:12:46;;;;;;;21.92;19.75;;;27.30;71.30;;;;;;5105385;28;20356;-42
2021/07/23 09:15:41;;;;;;;21.60;19.50;;;27.30;71.30;;;;;;5105431;28;20031;-43
2021/07/23 09:18:18;;;;;;;21.60;19.38;;;27.30;71.40;;;;;;5104819;28;20091;-42
2021/07/23 09:21:02;;;;;;;22.65;20.27;;;27.30;71.40;;;;;;5105112;28;20024;-42
2021/07/23 09:23:35;;;;;;;21.25;19.20;;;27.20;71.30;;;;;;5100229;28;20115;-42
2021/07/23 09:26:08;;;;;;;21.10;19.00;;;27.20;71.30;;;;;;5104940;28;20032;-43
2021/07/23 09:28:35;;;;;;;22.70;20.38;;;27.20;71.40;;;;;;5104895;28;20036;-41
2021/07/23 09:31:02;;;;;;;;;;;27.20;71.40;;;;;;5105386;28;20024;-43
2021/07/23 09:33:29;;;;;;;20.25;18.23;;;27.20;71.40;;;;;;5105081;28;19908;-42
2021/07/23 09:35:55;;;;;;;;;;;27.20;71.40;;;;;;5105455;28;20024;-42
2021/07/23 09:38:23;;;;;;;22.23;19.92;;;27.20;71.40;;;;;;5104884;28;20015;-42
2021/07/23 09:40:49;;;;;;;23.02;19.85;;;27.10;71.40;;;;;;5086252;28;20067;-43
2021/07/23 09:43:39;;;;;;;21.95;19.80;;;27.10;71.50;;;;;;5104820;28;20425;-43
2021/07/23 09:46:17;;;;;;;21.58;19.42;;;27.10;71.40;;;;;;5105022;28;20050;-42
2021/07/23 09:48:47;;;;;;;22.27;20.08;;;27.10;71.50;;;;;;5104544;28;20038;-41
2021/07/23 09:51:13;;;;;;;22.13;19.95;;;27.10;71.50;;;;;;5104483;28;20031;-42
2021/07/23 09:53:39;;;;;;;22.80;20.50;;;27.10;71.50;;;;;;5104492;28;20766;-42
2021/07/23 09:56:09;;;;;;;21.43;19.23;;;27.10;71.50;;;;;;5086302;28;20279;-42
2021/07/23 09:58:37;;;;;;;21.58;19.35;;;27.10;71.50;;;;;;5086118;28;20048;-43
2021/07/23 10:01:08;;;;;;;22.58;20.25;;;27.10;71.50;;;;;;5104319;28;20024;-42
2021/07/23 10:03:34;;;;;;;22.58;19.88;;;27.10;71.50;;;;;;5104563;28;20035;-43
2021/07/23 10:06:07;;;;;;;22.25;19.95;;;27.00;71.50;;;;;;5069519;28;20106;-43
2021/07/23 10:08:35;;;;;;;22.30;19.98;;;27.00;71.50;;;;;;5104353;28;20032;-42
2021/07/23 10:11:02;;;;;;;22.45;20.17;;;27.00;71.60;;;;;;5103849;28;20024;-43
2021/07/23 10:13:29;;;;;;;22.10;19.80;;;27.00;71.50;;;;;;5086111;28;20740;-43
2021/07/23 10:15:58;;;;;;;21.83;19.63;;;27.00;71.50;;;;;;5104081;28;20104;-42
2021/07/23 10:18:25;;;;;;;23.13;20.83;;;27.00;71.50;;;;;;5086021;28;20028;-43
2021/07/23 10:20:51;;;;;;;21.77;19.47;;;27.00;71.60;;;;;;5085688;28;20051;-43
2021/07/23 10:23:21;;;;;;;22.80;20.50;;;27.00;71.50;;;;;;5103912;28;20024;-43
2021/07/23 10:25:51;;;;;;;22.67;20.38;;;27.00;71.60;;;;;;5103824;28;20586;-43
2021/07/23 10:28:53;;;;;;;21.48;19.17;;;27.00;71.60;;;;;;5086448;28;20039;-42
2021/07/23 10:31:24;;;;;;;22.88;20.58;;;26.90;71.60;;;;;;5000440;28;20042;-42
2021/07/23 10:33:51;;;;;;;22.30;20.08;;;26.90;71.50;;;;;;5001633;28;20105;-43
2021/07/23 10:36:26;;;;;;;22.15;19.95;;;26.90;71.60;;;;;;5001459;28;20028;-43
2021/07/23 10:39:08;;;;;;;22.25;19.83;;;26.90;71.60;;;;;;5001356;28;20069;-42
2021/07/23 10:41:57;;;;;;;22.98;20.67;;;26.90;71.60;;;;;;5000910;28;20045;-42
2021/07/23 10:44:26;;;;;;;22.15;19.95;;;26.90;71.60;;;;;;4974760;28;20038;-42
2021/07/23 10:46:53;;;;;;;22.45;20.25;;;26.80;71.60;;;;;;5001297;28;20096;-42
2021/07/23 10:49:30;;;;;;;22.37;20.07;;;26.80;71.60;;;;;;5001426;28;20030;-41
2021/07/23 10:52:00;;;;;;;21.65;19.45;;;26.90;71.70;;;;;;5000950;28;20686;-43
2021/07/23 10:54:33;;;;;;;22.13;19.92;;;26.80;71.60;;;;;;5001103;28;20125;-42
2021/07/23 10:57:01;;;;;;;21.90;19.77;;;26.80;71.60;;;;;;5001134;28;20153;-43
2021/07/23 10:59:42;;;;;;;22.40;20.15;;;26.80;71.70;;;;;;5000851;28;20058;-43
2021/07/23 11:02:34;;;;;;;21.90;19.70;;;26.80;71.60;;;;;;5000991;28;20031;-43
2021/07/23 11:05:11;;;;;;;23.02;20.73;;;26.80;71.70;;;;;;5000994;28;20026;-42
2021/07/23 11:07:38;;;;;;;22.52;20.23;;;26.80;71.60;;;;;;5083903;28;20044;-43
2021/07/23 11:10:13;;;;;;;22.80;20.50;;;26.80;71.70;;;;;;5102877;28;20027;-42
2021/07/23 11:12:40;;;;;;;20.95;18.80;;;26.70;71.60;;;;;;5103254;28;20071;-42
2021/07/23 11:15:08;;;;;;;23.17;20.88;;;26.70;71.60;;;;;;5103088;28;20054;-42
2021/07/23 11:17:55;;;;;;;23.33;20.92;;;26.70;71.70;;;;;;5103361;28;20058;-43
2021/07/23 11:20:25;;;;;;;21.50;19.23;;;26.70;71.80;;;;;;5087509;28;20032;-43
2021/07/23 11:22:52;;;;;;;21.48;19.33;;;26.70;71.70;;;;;;5103182;28;20508;-43
2021/07/23 11:25:20;;;;;;;21.90;19.63;;;26.70;71.70;;;;;;5102819;28;20035;-43
2021/07/23 11:27:50;;;;;;;21.05;18.98;;;26.70;71.70;;;;;;5103300;28;20036;-42
2021/07/23 11:30:19;;;;;;;22.50;20.13;;;26.70;71.80;;;;;;5102677;28;20123;-42
2021/07/23 11:32:49;;;;;;;22.45;20.15;;;26.70;71.80;;;;;;5085352;28;20127;-42
2021/07/23 11:35:16;;;;;;;21.88;19.67;;;26.70;71.80;;;;;;5103360;28;20095;-43
2021/07/23 11:37:42;;;;;;;22.23;19.92;;;26.70;71.80;;;;;;5102928;28;20032;-43
2021/07/23 11:40:09;;;;;;;21.30;19.10;;;26.60;71.70;;;;;;5102972;28;20393;-43
2021/07/23 11:42:36;;;;;;;22.02;19.83;;;26.60;71.80;;;;;;5105732;28;20287;-43
2021/07/23 11:45:03;;;;;;;21.48;19.33;;;26.60;71.80;;;;;;5106803;28;20028;-43
2021/07/23 11:47:30;;;;;;;21.88;19.55;;;26.60;71.80;;;;;;5107327;28;20036;-42
2021/07/23 11:49:57;;;;;;;22.25;19.95;;;26.60;71.70;;;;;;5107342;28;20051;-43
2021/07/23 11:52:24;;;;;;;21.73;19.60;;;26.60;71.80;;;;;;5106856;28;20115;-42
2021/07/23 11:55:01;;;;;;;21.83;19.52;;;26.60;71.80;;;;;;5088536;28;20024;-43
2021/07/23 11:57:31;;;;;;;23.30;20.80;;;26.60;71.80;;;;;;5088620;28;20083;-42
2021/07/23 11:59:57;;;;;;;21.90;19.52;;;26.60;71.80;;;;;;5106659;28;20055;-43
2021/07/23 12:02:30;;;;;;;22.25;19.85;;;26.50;71.80;;;;;;5106605;28;20031;-42
2021/07/23 12:05:10;;;;;;;21.45;19.25;;;26.60;71.90;;;;;;5106758;28;20052;-42
2021/07/23 12:07:37;;;;;;;21.88;19.73;;;26.50;71.90;;;;;;5106598;28;20054;-42
2021/07/23 12:10:03;;;;;;;;;;;26.50;71.80;;;;;;5106794;28;20031;-43
2021/07/23 12:12:30;;;;;;;20.58;18.38;;;26.50;71.90;;;;;;5106405;28;20613;-42
2021/07/23 12:15:05;;;;;;;22.43;20.23;;;26.50;71.90;;;;;;5071747;28;20028;-43
2021/07/23 12:17:31;;;;;;;22.23;19.73;;;26.50;71.90;;;;;;5072296;28;20028;-43
2021/07/23 12:19:57;;;;;;;21.93;19.67;;;26.50;71.90;;;;;;5071680;28;20493;-43
2021/07/23 12:22:23;;;;;;;22.48;20.20;;;26.50;72.00;;;;;;5106411;28;20023;-42
2021/07/23 12:24:50;;;;;;;21.90;19.63;;;26.40;71.90;;;;;;5087945;28;20020;-43
2021/07/23 12:27:23;;;;;;;22.02;19.73;;;26.50;72.00;;;;;;5086092;28;20036;-42
2021/07/23 12:29:52;;;;;;;22.75;20.45;;;26.40;71.90;;;;;;5091057;28;20028;-43
2021/07/23 12:32:23;;;;;;;21.45;19.35;;;26.40;71.90;;;;;;5087772;28;20032;-42